createdAt,value
2022-08-26T00:01:33.339Z,20.40
2022-08-26T00:04:01.514Z,20.30
2022-08-26T00:06:28.709Z,20.20
2022-08-26T00:08:55.405Z,20.20
2022-08-26T00:11:26.873Z,20.20
2022-08-26T00:13:55.027Z,20.10
2022-08-26T00:16:23.614Z,20.10
2022-08-26T00:18:50.765Z,20.10
2022-08-26T00:21:17.800Z,20.10
2022-08-26T00:23:44.909Z,20.10
2022-08-26T00:26:13.166Z,20.00
2022-08-26T00:28:40.343Z,20.00
2022-08-26T00:31:07.490Z,20.00
2022-08-26T00:33:38.692Z,19.90
2022-08-26T00:36:06.606Z,19.90
2022-08-26T00:38:37.813Z,19.90
2022-08-26T00:41:05.702Z,19.90
2022-08-26T00:43:47.166Z,19.90
2022-08-26T00:46:19.616Z,19.90
2022-08-26T00:48:49.751Z,19.90
2022-08-26T00:51:23.074Z,19.90
2022-08-26T00:53:57.435Z,19.90
2022-08-26T00:56:53.381Z,19.90
2022-08-26T00:59:20.841Z,19.80
2022-08-26T01:01:47.640Z,19.80
2022-08-26T01:04:18.103Z,19.80
2022-08-26T01:06:45.323Z,19.80
2022-08-26T01:09:12.491Z,19.70
2022-08-26T01:11:39.691Z,19.60
2022-08-26T01:14:07.885Z,19.60
2022-08-26T01:16:36.147Z,19.60
2022-08-26T01:19:25.153Z,19.50
2022-08-26T01:22:02.377Z,19.50
2022-08-26T01:24:30.805Z,19.50
2022-08-26T01:27:05.103Z,19.50
2022-08-26T01:29:33.793Z,19.50
2022-08-26T01:32:00.526Z,19.50
2022-08-26T01:34:30.954Z,19.60
2022-08-26T01:37:15.507Z,19.50
2022-08-26T01:39:44.401Z,19.50
2022-08-26T01:42:14.614Z,19.40
2022-08-26T01:44:52.180Z,19.30
2022-08-26T01:47:21.380Z,19.30
2022-08-26T01:49:51.705Z,19.20
2022-08-26T01:52:24.073Z,19.10
2022-08-26T01:54:57.022Z,19.20
2022-08-26T01:57:24.949Z,19.20
2022-08-26T01:59:55.241Z,19.20
2022-08-26T02:02:22.769Z,19.20
2022-08-26T02:04:57.209Z,19.10
2022-08-26T02:07:27.788Z,19.00
2022-08-26T02:09:54.982Z,19.10
2022-08-26T02:12:22.500Z,19.10
2022-08-26T02:14:55.208Z,19.00
2022-08-26T02:17:29.410Z,18.90
2022-08-26T02:19:57.747Z,18.80
2022-08-26T02:22:24.814Z,18.70
2022-08-26T02:25:00.764Z,18.60
2022-08-26T02:27:32.899Z,18.40
2022-08-26T02:30:08.233Z,18.30
2022-08-26T02:32:35.123Z,18.40
2022-08-26T02:35:02.191Z,18.40
2022-08-26T02:37:32.626Z,18.50
2022-08-26T02:40:01.776Z,18.50
2022-08-26T02:42:29.854Z,18.50
2022-08-26T02:44:56.655Z,18.50
2022-08-26T02:47:24.808Z,18.50
2022-08-26T02:49:52.083Z,18.50
2022-08-26T02:52:19.283Z,18.50
2022-08-26T02:54:46.096Z,18.50
2022-08-26T02:57:16.179Z,18.50
2022-08-26T02:59:42.870Z,18.50
2022-08-26T03:02:12.278Z,18.40
2022-08-26T03:04:39.858Z,18.40
2022-08-26T03:07:07.010Z,18.30
2022-08-26T03:09:33.759Z,18.30
2022-08-26T03:12:00.830Z,18.30
2022-08-26T03:14:27.564Z,18.30
2022-08-26T03:16:54.689Z,18.30
2022-08-26T03:19:24.001Z,18.20
2022-08-26T03:21:52.416Z,18.30
2022-08-26T03:24:19.404Z,18.30
2022-08-26T03:26:52.718Z,18.30
2022-08-26T03:29:39.051Z,18.40
2022-08-26T03:32:06.097Z,18.40
2022-08-26T03:34:32.894Z,18.40
2022-08-26T03:36:59.730Z,18.40
2022-08-26T03:39:26.642Z,18.30
2022-08-26T03:41:54.206Z,18.30
2022-08-26T03:44:21.137Z,18.30
2022-08-26T03:46:47.838Z,18.30
2022-08-26T03:49:15.249Z,18.20
2022-08-26T03:51:42.177Z,18.20
2022-08-26T03:54:09.394Z,18.20
2022-08-26T03:56:38.402Z,18.20
2022-08-26T03:59:07.601Z,18.20
2022-08-26T04:01:34.832Z,18.10
2022-08-26T04:04:01.722Z,18.00
2022-08-26T04:06:31.498Z,18.00
2022-08-26T04:09:00.965Z,17.90
2022-08-26T04:11:30.393Z,18.00
2022-08-26T04:14:00.845Z,18.00
2022-08-26T04:16:29.437Z,18.00
2022-08-26T04:18:57.399Z,18.00
2022-08-26T04:21:25.994Z,18.00
2022-08-26T04:23:54.674Z,18.00
2022-08-26T04:26:22.609Z,18.00
2022-08-26T04:28:52.097Z,18.00
2022-08-26T04:31:19.714Z,18.00
2022-08-26T04:33:49.912Z,17.90
2022-08-26T04:36:17.519Z,17.90
2022-08-26T04:38:46.738Z,17.90
2022-08-26T04:41:15.424Z,17.70
2022-08-26T04:43:44.634Z,17.70
2022-08-26T04:46:13.891Z,17.70
2022-08-26T04:48:41.436Z,17.70
2022-08-26T04:51:09.715Z,17.70
2022-08-26T04:53:37.239Z,17.70
2022-08-26T04:56:05.043Z,17.70
2022-08-26T04:58:32.435Z,17.60
2022-08-26T05:00:59.766Z,17.50
2022-08-26T05:03:30.475Z,17.50
2022-08-26T05:05:58.534Z,17.40
2022-08-26T05:08:25.681Z,17.40
2022-08-26T05:10:57.170Z,17.50
2022-08-26T05:13:27.952Z,17.50
2022-08-26T05:15:56.431Z,17.60
2022-08-26T05:18:29.933Z,17.60
2022-08-26T05:20:57.373Z,17.60
2022-08-26T05:23:25.152Z,17.70
2022-08-26T05:25:58.963Z,17.70
2022-08-26T05:28:28.364Z,17.80
2022-08-26T05:30:55.955Z,17.80
2022-08-26T05:33:23.238Z,17.90
2022-08-26T05:35:50.438Z,17.90
2022-08-26T05:38:20.247Z,17.90
2022-08-26T05:40:52.796Z,18.00
2022-08-26T05:43:20.612Z,18.00
2022-08-26T05:45:49.765Z,18.10
2022-08-26T05:48:18.991Z,18.20
2022-08-26T05:50:52.055Z,18.20
2022-08-26T05:53:22.086Z,18.20
2022-08-26T05:55:53.653Z,18.20
2022-08-26T05:58:21.898Z,18.20
2022-08-26T06:00:57.520Z,18.20
2022-08-26T06:03:24.520Z,18.20
2022-08-26T06:05:51.137Z,18.20
2022-08-26T06:08:19.325Z,18.20
2022-08-26T06:10:55.314Z,18.30
2022-08-26T06:13:30.284Z,18.30
2022-08-26T06:15:59.484Z,18.30
2022-08-26T06:18:34.651Z,18.30
2022-08-26T06:21:31.876Z,18.30
2022-08-26T06:24:20.350Z,18.40
2022-08-26T06:26:51.514Z,18.50
2022-08-26T06:29:24.383Z,18.60
2022-08-26T06:31:51.766Z,18.70
2022-08-26T06:34:18.535Z,18.80
2022-08-26T06:36:45.625Z,18.90
2022-08-26T06:39:15.088Z,19.00
2022-08-26T06:41:44.977Z,19.00
2022-08-26T06:44:14.447Z,19.10
2022-08-26T06:46:42.875Z,19.20
2022-08-26T06:49:11.557Z,19.20
2022-08-26T06:51:40.155Z,19.30
2022-08-26T06:54:08.030Z,19.30
2022-08-26T06:56:40.957Z,19.40
2022-08-26T06:59:08.688Z,19.40
2022-08-26T07:01:39.122Z,19.40
2022-08-26T07:04:10.703Z,19.50
2022-08-26T07:06:40.413Z,19.50
2022-08-26T07:09:09.831Z,19.60
2022-08-26T07:11:38.960Z,19.70
2022-08-26T07:14:06.601Z,19.80
2022-08-26T07:16:34.189Z,19.80
2022-08-26T07:19:03.597Z,19.90
2022-08-26T07:21:40.223Z,20.00
2022-08-26T07:24:07.617Z,20.00
2022-08-26T07:26:34.684Z,20.10
2022-08-26T07:29:02.177Z,20.20
2022-08-26T07:31:36.087Z,20.20
2022-08-26T07:34:10.453Z,20.30
2022-08-26T07:36:37.283Z,20.40
2022-08-26T07:39:04.306Z,20.40
2022-08-26T07:41:31.033Z,20.50
2022-08-26T07:43:59.228Z,20.60
2022-08-26T07:46:27.232Z,20.70
2022-08-26T07:48:56.831Z,20.70
2022-08-26T07:51:24.772Z,20.80
2022-08-26T07:53:52.485Z,20.90
2022-08-26T07:56:20.523Z,21.00
2022-08-26T07:58:51.284Z,21.00
2022-08-26T08:01:18.936Z,21.10
2022-08-26T08:03:45.692Z,21.20
2022-08-26T08:06:12.493Z,21.20
2022-08-26T08:08:41.285Z,21.30
2022-08-26T08:11:08.007Z,21.30
2022-08-26T08:13:37.995Z,21.40
2022-08-26T08:16:05.722Z,21.40
2022-08-26T08:18:32.615Z,21.50
2022-08-26T08:21:19.950Z,21.60
2022-08-26T08:23:48.897Z,21.60
2022-08-26T08:26:15.836Z,21.70
2022-08-26T08:28:43.750Z,21.80
2022-08-26T08:31:19.226Z,21.90
2022-08-26T08:33:55.373Z,22.00
2022-08-26T08:36:22.744Z,22.10
2022-08-26T08:38:49.833Z,22.10
2022-08-26T08:41:40.538Z,22.20
2022-08-26T08:44:20.876Z,22.20
2022-08-26T08:46:54.207Z,22.30
2022-08-26T08:49:22.187Z,22.30
2022-08-26T08:51:56.647Z,22.40
2022-08-26T08:54:26.301Z,22.50
2022-08-26T08:57:07.335Z,22.50
2022-08-26T08:59:38.198Z,22.60
2022-08-26T09:02:30.050Z,22.70
2022-08-26T09:05:16.244Z,22.70
2022-08-26T09:07:52.428Z,22.80
2022-08-26T09:10:40.341Z,22.90
2022-08-26T09:13:25.156Z,22.90
2022-08-26T09:16:01.099Z,23.00
2022-08-26T09:18:52.219Z,23.10
2022-08-26T09:21:23.469Z,23.20
2022-08-26T09:23:55.721Z,23.30
2022-08-26T09:26:30.772Z,23.40
2022-08-26T09:29:04.648Z,23.50
2022-08-26T09:31:35.354Z,23.60
2022-08-26T09:34:17.305Z,23.70
2022-08-26T09:36:51.287Z,23.80
2022-08-26T09:39:23.772Z,23.90
2022-08-26T09:42:07.745Z,23.90
2022-08-26T09:44:57.436Z,24.00
2022-08-26T09:47:31.768Z,24.10
2022-08-26T09:50:20.208Z,24.20
2022-08-26T09:52:47.286Z,24.20
2022-08-26T09:55:20.660Z,24.20
2022-08-26T09:57:51.399Z,24.20
2022-08-26T10:01:01.396Z,24.30
2022-08-26T10:03:32.590Z,24.30
2022-08-26T10:06:06.348Z,24.40
2022-08-26T10:08:42.043Z,24.50
2022-08-26T10:11:42.741Z,24.60
2022-08-26T10:14:18.106Z,24.70
2022-08-26T10:17:08.734Z,24.80
2022-08-26T10:19:55.989Z,24.90
2022-08-26T10:22:50.942Z,24.90
2022-08-26T10:25:24.611Z,24.90
2022-08-26T10:27:53.571Z,25.00
2022-08-26T10:30:24.036Z,25.00
2022-08-26T10:32:57.989Z,25.00
2022-08-26T10:35:26.917Z,25.00
2022-08-26T10:37:57.836Z,25.00
2022-08-26T10:40:48.919Z,25.00
2022-08-26T10:43:25.897Z,25.00
2022-08-26T10:45:59.176Z,25.10
2022-08-26T10:48:56.443Z,25.20
2022-08-26T10:51:35.521Z,25.30
2022-08-26T10:54:15.070Z,25.40
2022-08-26T10:56:58.554Z,25.40
2022-08-26T10:59:53.095Z,25.40
2022-08-26T11:02:47.179Z,25.50
2022-08-26T11:05:19.700Z,25.60
2022-08-26T11:07:52.435Z,25.60
2022-08-26T11:10:19.119Z,25.60
2022-08-26T11:12:49.173Z,25.60
2022-08-26T11:15:24.699Z,25.60
2022-08-26T11:17:51.683Z,25.60
2022-08-26T11:20:37.581Z,25.70
2022-08-26T11:23:23.132Z,25.70
2022-08-26T11:25:56.985Z,25.80
2022-08-26T11:28:35.458Z,25.80
2022-08-26T11:31:04.554Z,25.90
2022-08-26T11:33:43.835Z,26.00
2022-08-26T11:36:12.005Z,26.00
2022-08-26T11:38:42.764Z,26.00
2022-08-26T11:41:17.190Z,26.00
2022-08-26T11:43:45.692Z,26.10
2022-08-26T11:46:12.975Z,26.20
2022-08-26T11:48:43.078Z,26.30
2022-08-26T11:51:13.415Z,26.30
2022-08-26T11:53:42.939Z,26.30
2022-08-26T11:56:24.464Z,26.30
2022-08-26T11:58:56.684Z,26.30
2022-08-26T12:01:31.192Z,26.30
2022-08-26T12:03:59.355Z,26.40
2022-08-26T12:06:31.101Z,26.40
2022-08-26T12:09:00.484Z,26.50
2022-08-26T12:11:31.012Z,26.60
2022-08-26T12:14:05.093Z,26.70
2022-08-26T12:16:36.972Z,26.70
2022-08-26T12:19:26.147Z,26.70
2022-08-26T12:22:34.517Z,26.70
2022-08-26T12:25:09.942Z,26.70
2022-08-26T12:27:42.576Z,26.80
2022-08-26T12:30:12.393Z,26.80
2022-08-26T12:33:03.481Z,26.70
2022-08-26T12:35:52.882Z,26.70
2022-08-26T12:38:22.301Z,26.80
2022-08-26T12:40:50.241Z,26.80
2022-08-26T12:43:45.753Z,26.90
2022-08-26T12:46:27.096Z,27.00
2022-08-26T12:48:54.800Z,27.00
2022-08-26T12:51:27.172Z,27.00
2022-08-26T12:53:54.522Z,27.00
2022-08-26T12:56:27.140Z,27.00
2022-08-26T12:59:08.823Z,26.90
2022-08-26T13:01:42.737Z,26.90
2022-08-26T13:04:38.089Z,26.80
2022-08-26T13:07:27.004Z,26.90
2022-08-26T13:09:58.328Z,26.90
2022-08-26T13:12:37.101Z,26.80
2022-08-26T13:15:05.916Z,26.90
2022-08-26T13:17:34.154Z,26.90
2022-08-26T13:20:04.020Z,26.90
2022-08-26T13:22:31.511Z,26.90
2022-08-26T13:24:58.238Z,26.90
2022-08-26T13:27:27.112Z,26.80
2022-08-26T13:29:56.970Z,26.80
2022-08-26T13:32:27.178Z,26.70
2022-08-26T13:34:56.503Z,26.50
2022-08-26T13:37:24.513Z,26.40
2022-08-26T13:40:04.718Z,26.30
2022-08-26T13:42:31.562Z,26.20
2022-08-26T13:44:58.834Z,25.90
2022-08-26T13:47:26.043Z,25.80
2022-08-26T13:49:54.824Z,25.50
2022-08-26T13:52:30.056Z,25.40
2022-08-26T13:54:58.595Z,25.10
2022-08-26T13:57:27.857Z,24.90
2022-08-26T13:59:56.382Z,24.70
2022-08-26T14:02:23.119Z,24.30
2022-08-26T14:04:50.065Z,24.00
2022-08-26T14:07:16.938Z,23.70
2022-08-26T14:09:43.588Z,23.30
2022-08-26T14:12:10.271Z,22.70
2022-08-26T14:14:36.896Z,22.40
2022-08-26T14:17:03.613Z,22.10
2022-08-26T14:19:31.367Z,21.90
2022-08-26T14:22:00.455Z,21.90
2022-08-26T14:24:27.442Z,21.80
2022-08-26T14:26:54.080Z,21.80
2022-08-26T14:29:20.763Z,21.80
2022-08-26T14:31:48.298Z,21.80
2022-08-26T14:34:15.157Z,21.80
2022-08-26T14:36:41.895Z,21.70
2022-08-26T14:39:11.841Z,21.70
2022-08-26T14:41:55.241Z,21.70
2022-08-26T14:44:27.604Z,21.60
2022-08-26T14:46:54.618Z,21.60
2022-08-26T14:49:22.904Z,21.70
2022-08-26T14:51:50.061Z,21.70
2022-08-26T14:54:18.199Z,21.70
2022-08-26T14:56:52.073Z,21.60
2022-08-26T14:59:25.360Z,21.60
2022-08-26T15:01:53.122Z,21.50
2022-08-26T15:04:20.164Z,21.30
2022-08-26T15:06:47.415Z,21.20
2022-08-26T15:09:14.951Z,21.20
2022-08-26T15:11:41.716Z,21.20
2022-08-26T15:14:14.761Z,21.20
2022-08-26T15:16:49.445Z,21.00
2022-08-26T15:19:17.092Z,21.00
2022-08-26T15:21:45.447Z,21.00
2022-08-26T15:24:12.992Z,20.90
2022-08-26T15:26:39.824Z,20.90
2022-08-26T15:29:06.803Z,21.00
2022-08-26T15:31:33.940Z,20.90
2022-08-26T15:34:06.812Z,21.00
2022-08-26T15:36:34.267Z,21.00
2022-08-26T15:39:01.609Z,21.00
2022-08-26T15:41:29.245Z,21.00
2022-08-26T15:43:56.901Z,21.10
2022-08-26T15:46:24.258Z,21.10
2022-08-26T15:48:51.813Z,21.10
2022-08-26T15:51:20.526Z,21.20
2022-08-26T15:53:47.200Z,21.10
2022-08-26T15:56:14.044Z,21.00
2022-08-26T15:58:40.654Z,21.00
2022-08-26T16:01:07.795Z,20.90
2022-08-26T16:03:35.410Z,20.70
2022-08-26T16:06:02.650Z,20.70
2022-08-26T16:08:29.419Z,20.70
2022-08-26T16:11:03.678Z,20.80
2022-08-26T16:13:30.321Z,20.80
2022-08-26T16:16:07.323Z,20.90
2022-08-26T16:18:34.039Z,21.00
2022-08-26T16:21:13.208Z,21.00
2022-08-26T16:23:40.941Z,21.00
2022-08-26T16:26:16.458Z,21.00
2022-08-26T16:28:44.084Z,21.10
2022-08-26T16:31:11.779Z,21.10
2022-08-26T16:33:39.049Z,21.00
2022-08-26T16:36:06.968Z,21.00
2022-08-26T16:38:34.684Z,21.10
2022-08-26T16:41:01.907Z,21.00
2022-08-26T16:43:28.839Z,21.10
2022-08-26T16:45:55.952Z,21.10
2022-08-26T16:48:23.620Z,21.20
2022-08-26T16:50:51.258Z,21.30
2022-08-26T16:53:18.632Z,21.30
2022-08-26T16:55:46.566Z,21.30
2022-08-26T16:58:13.485Z,21.40
2022-08-26T17:00:40.447Z,21.50
2022-08-26T17:03:07.187Z,21.50
2022-08-26T17:05:33.947Z,21.50
2022-08-26T17:08:00.950Z,21.50
2022-08-26T17:10:29.152Z,21.50
2022-08-26T17:12:56.325Z,21.50
2022-08-26T17:15:25.935Z,21.60
2022-08-26T17:17:53.655Z,21.60
2022-08-26T17:20:22.295Z,21.50
2022-08-26T17:22:51.222Z,21.50
2022-08-26T17:25:26.775Z,21.40
2022-08-26T17:27:53.814Z,21.40
2022-08-26T17:30:21.359Z,21.40
2022-08-26T17:32:48.996Z,21.40
2022-08-26T17:35:16.770Z,21.40
2022-08-26T17:37:43.861Z,21.30
2022-08-26T17:40:15.286Z,21.30
2022-08-26T17:42:42.331Z,21.20
2022-08-26T17:45:10.490Z,21.30
2022-08-26T17:47:38.405Z,21.30
2022-08-26T17:50:07.216Z,21.30
2022-08-26T17:52:33.885Z,21.30
2022-08-26T17:55:00.602Z,21.30
2022-08-26T17:57:27.370Z,21.30
2022-08-26T17:59:56.177Z,21.30
2022-08-26T18:02:22.980Z,21.10
2022-08-26T18:04:49.986Z,21.10
2022-08-26T18:07:17.126Z,21.00
2022-08-26T18:09:44.275Z,20.90
2022-08-26T18:12:12.200Z,20.90
2022-08-26T18:14:38.953Z,20.90
2022-08-26T18:17:05.718Z,20.90
2022-08-26T18:19:32.450Z,20.90
2022-08-26T18:21:59.115Z,20.90
2022-08-26T18:24:28.562Z,20.90
2022-08-26T18:26:55.283Z,20.90
2022-08-26T18:29:22.023Z,20.80
2022-08-26T18:31:49.519Z,20.80
2022-08-26T18:34:16.849Z,20.60
2022-08-26T18:36:44.096Z,20.50
2022-08-26T18:39:12.785Z,20.50
2022-08-26T18:41:50.042Z,20.50
2022-08-26T18:44:18.402Z,20.40
2022-08-26T18:46:46.393Z,20.40
2022-08-26T18:49:15.028Z,20.30
2022-08-26T18:51:42.629Z,20.30
2022-08-26T18:54:09.423Z,20.20
2022-08-26T18:56:38.975Z,20.20
2022-08-26T18:59:07.424Z,20.20
2022-08-26T19:01:35.737Z,20.20
2022-08-26T19:04:04.902Z,20.20
2022-08-26T19:06:35.309Z,20.20
2022-08-26T19:09:04.811Z,20.10
2022-08-26T19:11:37.192Z,20.10
2022-08-26T19:14:07.857Z,20.10
2022-08-26T19:16:35.264Z,20.10
2022-08-26T19:19:02.290Z,20.10
2022-08-26T19:21:29.689Z,20.20
2022-08-26T19:23:59.135Z,20.20
2022-08-26T19:26:27.031Z,20.20
2022-08-26T19:28:54.263Z,20.10
2022-08-26T19:31:21.560Z,20.10
2022-08-26T19:33:48.585Z,20.00
2022-08-26T19:36:21.740Z,20.00
2022-08-26T19:38:49.166Z,20.00
2022-08-26T19:41:20.412Z,20.00
2022-08-26T19:43:47.437Z,20.00
2022-08-26T19:46:19.860Z,20.10
2022-08-26T19:48:47.572Z,20.00
2022-08-26T19:51:21.531Z,20.00
2022-08-26T19:53:48.934Z,19.90
2022-08-26T19:56:15.764Z,19.80
2022-08-26T19:58:42.739Z,19.70
2022-08-26T20:01:10.074Z,19.70
2022-08-26T20:03:37.797Z,19.70
2022-08-26T20:06:06.533Z,19.70
2022-08-26T20:08:34.568Z,19.70
2022-08-26T20:11:07.481Z,19.80
2022-08-26T20:13:34.522Z,19.80
2022-08-26T20:16:01.185Z,19.90
2022-08-26T20:18:46.762Z,19.90
2022-08-26T20:21:29.360Z,19.90
2022-08-26T20:24:00.369Z,19.90
2022-08-26T20:26:28.776Z,19.90
2022-08-26T20:28:56.211Z,19.90
2022-08-26T20:31:23.590Z,19.90
2022-08-26T20:33:50.488Z,19.80
2022-08-26T20:36:20.124Z,19.80
2022-08-26T20:38:47.899Z,19.70
2022-08-26T20:41:15.125Z,19.70
2022-08-26T20:43:46.046Z,19.70
2022-08-26T20:46:18.134Z,19.70
2022-08-26T20:48:46.921Z,19.70
2022-08-26T20:51:14.423Z,19.70
2022-08-26T20:53:41.843Z,19.70
2022-08-26T20:56:12.845Z,19.70
2022-08-26T20:58:40.816Z,19.70
2022-08-26T21:01:08.993Z,19.70
2022-08-26T21:03:36.666Z,19.70
2022-08-26T21:06:03.912Z,19.70
2022-08-26T21:08:33.150Z,19.70
2022-08-26T21:11:00.874Z,19.70
2022-08-26T21:13:35.822Z,19.70
2022-08-26T21:16:10.984Z,19.70
2022-08-26T21:18:38.490Z,19.60
2022-08-26T21:21:06.704Z,19.50
2022-08-26T21:23:33.996Z,19.50
2022-08-26T21:26:10.561Z,19.50
2022-08-26T21:28:39.632Z,19.50
2022-08-26T21:31:08.320Z,19.40
2022-08-26T21:33:35.348Z,19.40
2022-08-26T21:36:02.907Z,19.40
2022-08-26T21:38:30.921Z,19.50
2022-08-26T21:41:03.552Z,19.50
2022-08-26T21:43:35.482Z,19.50
2022-08-26T21:46:14.577Z,19.50
2022-08-26T21:48:50.374Z,19.50
2022-08-26T21:51:19.923Z,19.50
2022-08-26T21:53:47.251Z,19.50
2022-08-26T21:56:16.202Z,19.50
2022-08-26T21:58:42.958Z,19.40
2022-08-26T22:01:11.796Z,19.40
2022-08-26T22:03:46.876Z,19.40
2022-08-26T22:06:19.130Z,19.30
2022-08-26T22:08:45.871Z,19.30
2022-08-26T22:11:14.226Z,19.30
2022-08-26T22:13:42.242Z,19.20
2022-08-26T22:16:10.118Z,19.20
2022-08-26T22:18:37.621Z,19.10
2022-08-26T22:21:07.832Z,19.00
2022-08-26T22:23:36.371Z,19.00
2022-08-26T22:26:04.155Z,19.10
2022-08-26T22:28:31.697Z,19.10
2022-08-26T22:30:58.508Z,19.10
2022-08-26T22:33:25.783Z,19.20
2022-08-26T22:35:53.701Z,19.20
2022-08-26T22:38:21.415Z,19.20
2022-08-26T22:40:51.050Z,19.20
2022-08-26T22:43:18.965Z,19.20
2022-08-26T22:45:48.178Z,19.30
2022-08-26T22:48:21.827Z,19.30
2022-08-26T22:50:49.529Z,19.20
2022-08-26T22:53:17.617Z,19.20
2022-08-26T22:55:45.115Z,19.20
2022-08-26T22:58:14.486Z,19.20
2022-08-26T23:00:42.735Z,19.10
2022-08-26T23:03:10.888Z,19.20
2022-08-26T23:05:39.535Z,19.20
2022-08-26T23:08:07.311Z,19.20
2022-08-26T23:10:34.119Z,19.10
2022-08-26T23:13:03.575Z,19.10
2022-08-26T23:15:30.883Z,19.20
2022-08-26T23:18:03.132Z,19.20
2022-08-26T23:20:30.674Z,19.20
2022-08-26T23:22:57.499Z,19.20
2022-08-26T23:25:25.677Z,19.20
2022-08-26T23:27:52.686Z,19.20
2022-08-26T23:30:22.933Z,19.10
2022-08-26T23:32:50.524Z,19.10
2022-08-26T23:35:19.974Z,19.10
2022-08-26T23:37:49.978Z,19.00
2022-08-26T23:40:33.200Z,19.00
2022-08-26T23:43:03.326Z,19.10
2022-08-26T23:45:31.376Z,19.00
2022-08-26T23:47:58.139Z,19.00
2022-08-26T23:50:47.962Z,18.90
2022-08-26T23:53:19.836Z,18.90
2022-08-26T23:55:48.657Z,18.80
2022-08-26T23:58:17.593Z,18.80
